sensor_id;sensor_type;location;lat;lon;timestamp;pressure;altitude;pressure_sealevel;temperature;humidity
70445;BME280;57902;49.638;11.070;2022-07-10T00:01:57;98845.38;;;15.93;76.88
70445;BME280;57902;49.638;11.070;2022-07-10T00:04:24;98843.88;;;15.87;76.83
70445;BME280;57902;49.638;11.070;2022-07-10T00:06:50;98837.13;;;15.83;77.80
70445;BME280;57902;49.638;11.070;2022-07-10T00:09:17;98837.97;;;15.84;77.05
70445;BME280;57902;49.638;11.070;2022-07-10T00:11:43;98846.78;;;15.80;77.42
70445;BME280;57902;49.638;11.070;2022-07-10T00:14:10;98838.94;;;15.81;77.23
70445;BME280;57902;49.638;11.070;2022-07-10T00:16:37;98838.03;;;15.82;77.51
70445;BME280;57902;49.638;11.070;2022-07-10T00:19:03;98842.31;;;15.83;77.33
70445;BME280;57902;49.638;11.070;2022-07-10T00:21:30;98833.63;;;15.84;77.28
70445;BME280;57902;49.638;11.070;2022-07-10T00:23:56;98838.69;;;15.87;76.95
70445;BME280;57902;49.638;11.070;2022-07-10T00:26:23;98840.50;;;15.85;77.52
70445;BME280;57902;49.638;11.070;2022-07-10T00:28:49;98837.06;;;15.85;77.53
70445;BME280;57902;49.638;11.070;2022-07-10T00:31:15;98829.38;;;15.82;77.71
70445;BME280;57902;49.638;11.070;2022-07-10T00:33:43;98822.50;;;15.81;77.09
70445;BME280;57902;49.638;11.070;2022-07-10T00:36:12;98824.50;;;15.74;77.89
70445;BME280;57902;49.638;11.070;2022-07-10T00:38:39;98826.22;;;15.73;77.56
70445;BME280;57902;49.638;11.070;2022-07-10T00:41:06;98829.69;;;15.74;77.62
70445;BME280;57902;49.638;11.070;2022-07-10T00:43:57;98834.34;;;15.66;78.20
70445;BME280;57902;49.638;11.070;2022-07-10T00:46:25;98834.34;;;15.66;77.87
70445;BME280;57902;49.638;11.070;2022-07-10T00:48:53;98835.25;;;15.65;78.51
70445;BME280;57902;49.638;11.070;2022-07-10T00:51:22;98831.75;;;15.66;77.54
70445;BME280;57902;49.638;11.070;2022-07-10T00:53:50;98829.16;;;15.66;77.06
70445;BME280;57902;49.638;11.070;2022-07-10T00:56:19;98831.94;;;15.61;77.33
70445;BME280;57902;49.638;11.070;2022-07-10T00:58:47;98831.34;;;15.54;77.88
70445;BME280;57902;49.638;11.070;2022-07-10T01:01:14;98830.63;;;15.51;77.85
70445;BME280;57902;49.638;11.070;2022-07-10T01:03:42;98829.19;;;15.44;78.28
70445;BME280;57902;49.638;11.070;2022-07-10T01:06:09;98826.59;;;15.44;77.89
70445;BME280;57902;49.638;11.070;2022-07-10T01:08:36;98835.47;;;15.38;78.19
70445;BME280;57902;49.638;11.070;2022-07-10T01:11:03;98837.44;;;15.33;78.31
70445;BME280;57902;49.638;11.070;2022-07-10T01:13:30;98827.94;;;15.32;78.56
70445;BME280;57902;49.638;11.070;2022-07-10T01:15:58;98831.50;;;15.29;78.65
70445;BME280;57902;49.638;11.070;2022-07-10T01:18:27;98827.19;;;15.28;79.15
70445;BME280;57902;49.638;11.070;2022-07-10T01:20:55;98825.66;;;15.24;79.57
70445;BME280;57902;49.638;11.070;2022-07-10T01:23:22;98827.13;;;15.30;78.94
70445;BME280;57902;49.638;11.070;2022-07-10T01:25:50;98825.41;;;15.30;78.81
70445;BME280;57902;49.638;11.070;2022-07-10T01:28:17;98818.56;;;15.28;78.94
70445;BME280;57902;49.638;11.070;2022-07-10T01:30:44;98817.00;;;15.23;79.22
70445;BME280;57902;49.638;11.070;2022-07-10T01:33:11;98818.69;;;15.25;79.02
70445;BME280;57902;49.638;11.070;2022-07-10T01:35:38;98815.44;;;15.19;79.24
70445;BME280;57902;49.638;11.070;2022-07-10T01:38:05;98814.53;;;15.20;79.23
70445;BME280;57902;49.638;11.070;2022-07-10T01:40:31;98822.31;;;15.20;79.53
70445;BME280;57902;49.638;11.070;2022-07-10T01:42:58;98815.38;;;15.21;79.38
70445;BME280;57902;49.638;11.070;2022-07-10T01:45:25;98830.06;;;15.22;79.26
70445;BME280;57902;49.638;11.070;2022-07-10T01:47:51;98825.03;;;15.17;79.54
70445;BME280;57902;49.638;11.070;2022-07-10T01:50:19;98831.00;;;15.19;79.43
70445;BME280;57902;49.638;11.070;2022-07-10T01:52:45;98836.19;;;15.19;79.59
70445;BME280;57902;49.638;11.070;2022-07-10T01:55:12;98835.38;;;15.19;79.59
70445;BME280;57902;49.638;11.070;2022-07-10T01:57:38;98832.66;;;15.22;79.16
70445;BME280;57902;49.638;11.070;2022-07-10T02:00:06;98836.13;;;15.21;79.13
70445;BME280;57902;49.638;11.070;2022-07-10T02:02:32;98836.09;;;15.22;78.48
70445;BME280;57902;49.638;11.070;2022-07-10T02:04:59;98837.78;;;15.23;78.18
70445;BME280;57902;49.638;11.070;2022-07-10T02:07:25;98839.59;;;15.21;78.08
70445;BME280;57902;49.638;11.070;2022-07-10T02:09:52;98838.75;;;15.21;78.17
70445;BME280;57902;49.638;11.070;2022-07-10T02:12:19;98835.50;;;15.16;78.37
70445;BME280;57902;49.638;11.070;2022-07-10T02:14:45;98841.66;;;15.13;79.01
70445;BME280;57902;49.638;11.070;2022-07-10T02:17:12;98833.84;;;15.13;78.21
70445;BME280;57902;49.638;11.070;2022-07-10T02:19:39;98835.56;;;15.14;78.15
70445;BME280;57902;49.638;11.070;2022-07-10T02:22:05;98836.56;;;15.10;77.90
70445;BME280;57902;49.638;11.070;2022-07-10T02:24:31;98831.50;;;15.07;77.81
70445;BME280;57902;49.638;11.070;2022-07-10T02:26:58;98841.28;;;15.00;78.02
70445;BME280;57902;49.638;11.070;2022-07-10T02:29:24;98839.53;;;15.01;77.59
70445;BME280;57902;49.638;11.070;2022-07-10T02:31:51;98836.06;;;15.00;76.76
70445;BME280;57902;49.638;11.070;2022-07-10T02:34:18;98845.75;;;14.97;77.23
70445;BME280;57902;49.638;11.070;2022-07-10T02:36:44;98847.56;;;14.95;76.31
70445;BME280;57902;49.638;11.070;2022-07-10T02:39:11;98851.25;;;14.89;76.65
70445;BME280;57902;49.638;11.070;2022-07-10T02:41:37;98846.22;;;14.84;76.64
70445;BME280;57902;49.638;11.070;2022-07-10T02:44:04;98847.91;;;14.85;76.78
70445;BME280;57902;49.638;11.070;2022-07-10T02:46:30;98855.81;;;14.82;76.93
70445;BME280;57902;49.638;11.070;2022-07-10T02:48:57;98854.09;;;14.81;76.79
70445;BME280;57902;49.638;11.070;2022-07-10T02:51:23;98859.03;;;14.89;75.79
70445;BME280;57902;49.638;11.070;2022-07-10T02:53:50;98850.63;;;14.82;75.99
70445;BME280;57902;49.638;11.070;2022-07-10T02:56:16;98850.78;;;14.78;76.13
70445;BME280;57902;49.638;11.070;2022-07-10T02:58:43;98850.06;;;14.74;75.95
70445;BME280;57902;49.638;11.070;2022-07-10T03:01:09;98851.75;;;14.75;75.01
70445;BME280;57902;49.638;11.070;2022-07-10T03:03:36;98853.56;;;14.73;74.74
70445;BME280;57902;49.638;11.070;2022-07-10T03:06:02;98851.81;;;14.74;74.20
70445;BME280;57902;49.638;11.070;2022-07-10T03:08:29;98851.22;;;14.67;74.57
70445;BME280;57902;49.638;11.070;2022-07-10T03:10:55;98852.31;;;14.60;74.47
70445;BME280;57902;49.638;11.070;2022-07-10T03:13:22;98850.59;;;14.59;75.10
70445;BME280;57902;49.638;11.070;2022-07-10T03:15:48;98852.53;;;14.53;74.46
70445;BME280;57902;49.638;11.070;2022-07-10T03:18:15;98847.44;;;14.50;74.17
70445;BME280;57902;49.638;11.070;2022-07-10T03:20:41;98845.66;;;14.52;73.82
70445;BME280;57902;49.638;11.070;2022-07-10T03:23:08;98848.19;;;14.54;72.81
70445;BME280;57902;49.638;11.070;2022-07-10T03:25:34;98845.59;;;14.54;72.34
70445;BME280;57902;49.638;11.070;2022-07-10T03:28:01;98845.66;;;14.52;72.00
70445;BME280;57902;49.638;11.070;2022-07-10T03:30:27;98846.00;;;14.43;72.17
70445;BME280;57902;49.638;11.070;2022-07-10T03:32:54;98857.59;;;14.33;72.86
70445;BME280;57902;49.638;11.070;2022-07-10T03:35:20;98862.41;;;14.18;73.40
70445;BME280;57902;49.638;11.070;2022-07-10T03:37:47;98858.91;;;14.20;72.87
70445;BME280;57902;49.638;11.070;2022-07-10T03:40:13;98864.31;;;14.13;73.60
70445;BME280;57902;49.638;11.070;2022-07-10T03:42:40;98867.91;;;14.09;74.23
70445;BME280;57902;49.638;11.070;2022-07-10T03:45:06;98861.94;;;14.07;73.86
70445;BME280;57902;49.638;11.070;2022-07-10T03:47:33;98862.09;;;14.03;74.27
70445;BME280;57902;49.638;11.070;2022-07-10T03:49:59;98857.75;;;14.03;74.70
70445;BME280;57902;49.638;11.070;2022-07-10T03:52:26;98856.06;;;14.02;73.68
70445;BME280;57902;49.638;11.070;2022-07-10T03:54:54;98854.22;;;14.06;73.37
70445;BME280;57902;49.638;11.070;2022-07-10T03:57:20;98855.06;;;14.06;73.27
70445;BME280;57902;49.638;11.070;2022-07-10T04:00:06;98854.16;;;14.07;72.82
70445;BME280;57902;49.638;11.070;2022-07-10T04:02:33;98853.47;;;14.02;72.55
70445;BME280;57902;49.638;11.070;2022-07-10T04:05:00;98850.19;;;13.97;73.10
70445;BME280;57902;49.638;11.070;2022-07-10T04:07:27;98851.09;;;13.96;73.66
70445;BME280;57902;49.638;11.070;2022-07-10T04:09:53;98853.72;;;13.94;73.33
70445;BME280;57902;49.638;11.070;2022-07-10T04:12:20;98851.84;;;13.99;73.10
70445;BME280;57902;49.638;11.070;2022-07-10T04:14:46;98852.78;;;13.97;73.89
70445;BME280;57902;49.638;11.070;2022-07-10T04:17:14;98848.44;;;13.97;73.78
70445;BME280;57902;49.638;11.070;2022-07-10T04:19:41;98849.34;;;14.22;73.92
70445;BME280;57902;49.638;11.070;2022-07-10T04:22:07;98847.03;;;14.63;72.89
70445;BME280;57902;49.638;11.070;2022-07-10T04:24:33;98852.72;;;15.18;70.69
70445;BME280;57902;49.638;11.070;2022-07-10T04:27:00;98852.94;;;15.77;68.61
70445;BME280;57902;49.638;11.070;2022-07-10T04:29:27;98857.34;;;16.37;64.25
70445;BME280;57902;49.638;11.070;2022-07-10T04:31:53;98854.88;;;16.92;62.34
70445;BME280;57902;49.638;11.070;2022-07-10T04:34:20;98869.97;;;17.41;60.15
70445;BME280;57902;49.638;11.070;2022-07-10T04:36:47;98870.53;;;17.83;58.00
70445;BME280;57902;49.638;11.070;2022-07-10T04:39:13;98871.56;;;17.98;56.04
70445;BME280;57902;49.638;11.070;2022-07-10T04:41:40;98868.53;;;17.88;56.96
70445;BME280;57902;49.638;11.070;2022-07-10T04:44:07;98868.28;;;18.28;54.54
70445;BME280;57902;49.638;11.070;2022-07-10T04:46:33;98876.19;;;18.26;54.06
70445;BME280;57902;49.638;11.070;2022-07-10T04:49:00;98873.88;;;18.38;55.38
70445;BME280;57902;49.638;11.070;2022-07-10T04:51:26;98874.28;;;18.79;53.29
70445;BME280;57902;49.638;11.070;2022-07-10T04:53:53;98885.66;;;19.12;52.62
70445;BME280;57902;49.638;11.070;2022-07-10T04:56:19;98885.59;;;19.44;51.51
70445;BME280;57902;49.638;11.070;2022-07-10T04:58:46;98884.56;;;19.62;49.90
70445;BME280;57902;49.638;11.070;2022-07-10T05:01:18;98897.78;;;20.05;48.65
70445;BME280;57902;49.638;11.070;2022-07-10T05:03:45;98887.34;;;20.05;50.03
70445;BME280;57902;49.638;11.070;2022-07-10T05:06:11;98887.00;;;20.26;48.32
70445;BME280;57902;49.638;11.070;2022-07-10T05:08:38;98886.84;;;20.29;48.14
70445;BME280;57902;49.638;11.070;2022-07-10T05:11:05;98888.38;;;20.03;48.62
70445;BME280;57902;49.638;11.070;2022-07-10T05:13:31;98892.03;;;20.15;49.17
70445;BME280;57902;49.638;11.070;2022-07-10T05:15:58;98893.56;;;20.48;49.55
70445;BME280;57902;49.638;11.070;2022-07-10T05:18:24;98899.56;;;20.93;47.31
70445;BME280;57902;49.638;11.070;2022-07-10T05:20:51;98895.16;;;20.93;47.91
70445;BME280;57902;49.638;11.070;2022-07-10T05:23:17;98886.63;;;21.31;46.42
70445;BME280;57902;49.638;11.070;2022-07-10T05:25:44;98899.47;;;21.63;45.60
70445;BME280;57902;49.638;11.070;2022-07-10T05:28:10;98901.06;;;21.66;44.63
70445;BME280;57902;49.638;11.070;2022-07-10T05:30:39;98900.06;;;21.94;43.47
70445;BME280;57902;49.638;11.070;2022-07-10T05:33:05;98903.16;;;21.46;44.02
70445;BME280;57902;49.638;11.070;2022-07-10T05:35:32;98909.56;;;21.42;44.11
70445;BME280;57902;49.638;11.070;2022-07-10T05:37:58;98911.09;;;21.59;43.25
70445;BME280;57902;49.638;11.070;2022-07-10T05:40:25;98906.31;;;21.66;42.63
70445;BME280;57902;49.638;11.070;2022-07-10T05:42:51;98899.69;;;21.46;43.23
70445;BME280;57902;49.638;11.070;2022-07-10T05:45:18;98902.56;;;21.83;41.89
70445;BME280;57902;49.638;11.070;2022-07-10T05:47:45;98910.25;;;21.99;42.04
70445;BME280;57902;49.638;11.070;2022-07-10T05:50:12;98916.75;;;21.93;42.81
70445;BME280;57902;49.638;11.070;2022-07-10T05:52:39;98922.53;;;22.39;41.42
70445;BME280;57902;49.638;11.070;2022-07-10T05:55:06;98925.47;;;22.60;41.15
70445;BME280;57902;49.638;11.070;2022-07-10T05:57:32;98919.25;;;22.74;39.83
70445;BME280;57902;49.638;11.070;2022-07-10T05:59:59;98927.25;;;22.85;39.92
70445;BME280;57902;49.638;11.070;2022-07-10T06:02:26;98916.53;;;22.36;40.10
70445;BME280;57902;49.638;11.070;2022-07-10T06:04:53;98918.28;;;22.10;41.44
70445;BME280;57902;49.638;11.070;2022-07-10T06:07:19;98906.06;;;21.83;41.50
70445;BME280;57902;49.638;11.070;2022-07-10T06:09:45;98909.72;;;21.54;42.37
70445;BME280;57902;49.638;11.070;2022-07-10T06:12:12;98907.50;;;21.33;42.54
70445;BME280;57902;49.638;11.070;2022-07-10T06:14:38;98915.03;;;21.66;42.33
70445;BME280;57902;49.638;11.070;2022-07-10T06:17:05;98907.22;;;21.38;44.00
70445;BME280;57902;49.638;11.070;2022-07-10T06:19:31;98914.50;;;22.14;41.59
70445;BME280;57902;49.638;11.070;2022-07-10T06:21:58;98919.69;;;22.54;40.40
70445;BME280;57902;49.638;11.070;2022-07-10T06:24:43;98925.47;;;22.34;40.19
70445;BME280;57902;49.638;11.070;2022-07-10T06:27:10;98917.22;;;22.00;41.08
70445;BME280;57902;49.638;11.070;2022-07-10T06:29:40;98919.69;;;21.89;41.69
70445;BME280;57902;49.638;11.070;2022-07-10T06:32:07;98915.06;;;21.52;41.55
70445;BME280;57902;49.638;11.070;2022-07-10T06:34:34;98921.69;;;20.58;43.87
70445;BME280;57902;49.638;11.070;2022-07-10T06:37:01;98926.56;;;20.36;43.67
70445;BME280;57902;49.638;11.070;2022-07-10T06:39:31;98920.09;;;19.82;44.84
70445;BME280;57902;49.638;11.070;2022-07-10T06:42:03;98926.53;;;19.45;45.67
70445;BME280;57902;49.638;11.070;2022-07-10T06:44:29;98921.22;;;19.30;46.30
70445;BME280;57902;49.638;11.070;2022-07-10T06:46:57;98916.41;;;19.06;46.82
70445;BME280;57902;49.638;11.070;2022-07-10T06:49:42;98927.59;;;19.88;44.76
70445;BME280;57902;49.638;11.070;2022-07-10T06:52:09;98917.53;;;20.56;43.68
70445;BME280;57902;49.638;11.070;2022-07-10T06:54:37;98914.25;;;20.95;40.90
70445;BME280;57902;49.638;11.070;2022-07-10T06:57:04;98916.16;;;22.15;38.69
70445;BME280;57902;49.638;11.070;2022-07-10T06:59:31;98918.31;;;22.87;36.75
70445;BME280;57902;49.638;11.070;2022-07-10T07:01:58;98915.34;;;23.42;36.12
70445;BME280;57902;49.638;11.070;2022-07-10T07:04:24;98917.97;;;24.02;34.55
70445;BME280;57902;49.638;11.070;2022-07-10T07:06:51;98929.16;;;24.97;32.62
70445;BME280;57902;49.638;11.070;2022-07-10T07:09:17;98930.53;;;25.24;30.43
70445;BME280;57902;49.638;11.070;2022-07-10T07:11:44;98928.97;;;23.96;32.91
70445;BME280;57902;49.638;11.070;2022-07-10T07:14:12;98925.47;;;23.22;33.91
70445;BME280;57902;49.638;11.070;2022-07-10T07:16:39;98937.44;;;22.64;34.76
70445;BME280;57902;49.638;11.070;2022-07-10T07:19:09;98940.13;;;22.24;34.83
70445;BME280;57902;49.638;11.070;2022-07-10T07:21:44;98927.44;;;21.77;35.43
70445;BME280;57902;49.638;11.070;2022-07-10T07:24:28;98932.91;;;22.40;35.80
70445;BME280;57902;49.638;11.070;2022-07-10T07:26:55;98932.16;;;22.89;32.88
70445;BME280;57902;49.638;11.070;2022-07-10T07:29:21;98930.53;;;22.63;33.55
70445;BME280;57902;49.638;11.070;2022-07-10T07:31:48;98928.53;;;22.00;34.82
70445;BME280;57902;49.638;11.070;2022-07-10T07:34:14;98928.38;;;21.35;35.61
70445;BME280;57902;49.638;11.070;2022-07-10T07:36:41;98936.16;;;20.80;36.28
70445;BME280;57902;49.638;11.070;2022-07-10T07:39:07;98938.97;;;20.18;37.60
70445;BME280;57902;49.638;11.070;2022-07-10T07:41:34;98936.53;;;19.68;38.68
70445;BME280;57902;49.638;11.070;2022-07-10T07:44:00;98940.13;;;19.35;40.06
70445;BME280;57902;49.638;11.070;2022-07-10T07:46:27;98937.66;;;19.32;39.87
70445;BME280;57902;49.638;11.070;2022-07-10T07:48:53;98955.09;;;19.00;41.02
70445;BME280;57902;49.638;11.070;2022-07-10T07:51:20;98951.56;;;18.83;40.54
70445;BME280;57902;49.638;11.070;2022-07-10T07:53:46;98944.06;;;19.11;41.21
70445;BME280;57902;49.638;11.070;2022-07-10T07:56:13;98946.56;;;19.92;40.68
70445;BME280;57902;49.638;11.070;2022-07-10T07:58:39;98940.13;;;20.57;37.75
70445;BME280;57902;49.638;11.070;2022-07-10T08:01:06;98942.41;;;20.92;35.83
70445;BME280;57902;49.638;11.070;2022-07-10T08:03:33;98939.78;;;21.21;35.68
70445;BME280;57902;49.638;11.070;2022-07-10T08:06:19;98930.59;;;21.28;35.75
70445;BME280;57902;49.638;11.070;2022-07-10T08:08:46;98935.13;;;21.11;35.39
70445;BME280;57902;49.638;11.070;2022-07-10T08:11:12;98932.53;;;21.24;34.86
70445;BME280;57902;49.638;11.070;2022-07-10T08:13:39;98935.72;;;20.73;36.13
70445;BME280;57902;49.638;11.070;2022-07-10T08:16:05;98937.41;;;20.30;37.07
70445;BME280;57902;49.638;11.070;2022-07-10T08:18:34;98928.94;;;19.80;38.20
70445;BME280;57902;49.638;11.070;2022-07-10T08:21:01;98934.69;;;19.70;38.58
70445;BME280;57902;49.638;11.070;2022-07-10T08:23:27;98929.03;;;19.62;37.88
70445;BME280;57902;49.638;11.070;2022-07-10T08:25:54;98930.13;;;19.42;38.80
70445;BME280;57902;49.638;11.070;2022-07-10T08:28:20;98933.19;;;19.34;38.64
70445;BME280;57902;49.638;11.070;2022-07-10T08:30:50;98933.88;;;19.22;38.89
70445;BME280;57902;49.638;11.070;2022-07-10T08:33:16;98929.63;;;19.03;40.70
70445;BME280;57902;49.638;11.070;2022-07-10T08:35:43;98937.91;;;18.96;41.03
70445;BME280;57902;49.638;11.070;2022-07-10T08:38:09;98938.91;;;18.93;40.80
70445;BME280;57902;49.638;11.070;2022-07-10T08:40:36;98940.28;;;18.83;40.60
70445;BME280;57902;49.638;11.070;2022-07-10T08:43:05;98939.66;;;18.78;41.87
70445;BME280;57902;49.638;11.070;2022-07-10T08:45:32;98935.72;;;18.70;42.03
70445;BME280;57902;49.638;11.070;2022-07-10T08:48:03;98946.59;;;18.79;41.32
70445;BME280;57902;49.638;11.070;2022-07-10T08:50:33;98933.28;;;18.83;40.55
70445;BME280;57902;49.638;11.070;2022-07-10T08:55:36;98944.88;;;18.95;39.86
70445;BME280;57902;49.638;11.070;2022-07-10T08:58:03;98940.59;;;18.94;39.78
70445;BME280;57902;49.638;11.070;2022-07-10T09:00:34;98934.34;;;18.97;39.96
70445;BME280;57902;49.638;11.070;2022-07-10T09:03:00;98943.50;;;18.88;40.15
70445;BME280;57902;49.638;11.070;2022-07-10T09:05:27;98941.63;;;18.74;40.56
70445;BME280;57902;49.638;11.070;2022-07-10T09:07:54;98937.13;;;18.60;41.13
70445;BME280;57902;49.638;11.070;2022-07-10T09:10:24;98946.88;;;18.57;40.99
70445;BME280;57902;49.638;11.070;2022-07-10T09:12:54;98941.97;;;18.50;41.81
70445;BME280;57902;49.638;11.070;2022-07-10T09:15:22;98951.72;;;18.47;42.34
70445;BME280;57902;49.638;11.070;2022-07-10T09:17:53;98946.78;;;18.58;41.36
70445;BME280;57902;49.638;11.070;2022-07-10T09:20:37;98950.31;;;18.57;41.86
70445;BME280;57902;49.638;11.070;2022-07-10T09:23:17;98945.66;;;18.46;42.20
70445;BME280;57902;49.638;11.070;2022-07-10T09:25:45;98950.78;;;18.65;40.62
70445;BME280;57902;49.638;11.070;2022-07-10T09:28:16;98947.59;;;18.76;41.20
70445;BME280;57902;49.638;11.070;2022-07-10T09:30:43;98949.69;;;18.87;39.75
70445;BME280;57902;49.638;11.070;2022-07-10T09:41:29;98947.88;;;19.21;39.01
70445;BME280;57902;49.638;11.070;2022-07-10T09:43:57;98937.75;;;19.15;39.64
70445;BME280;57902;49.638;11.070;2022-07-10T09:46:31;98938.50;;;19.17;40.16
70445;BME280;57902;49.638;11.070;2022-07-10T09:49:12;98951.66;;;19.15;40.09
70445;BME280;57902;49.638;11.070;2022-07-10T09:51:44;98954.06;;;19.02;40.76
70445;BME280;57902;49.638;11.070;2022-07-10T09:54:14;98941.00;;;19.02;40.46
70445;BME280;57902;49.638;11.070;2022-07-10T09:56:46;98945.06;;;19.08;40.38
70445;BME280;57902;49.638;11.070;2022-07-10T09:59:18;98945.50;;;19.16;40.67
70445;BME280;57902;49.638;11.070;2022-07-10T10:01:50;98941.38;;;19.28;39.92
70445;BME280;57902;49.638;11.070;2022-07-10T10:04:19;98943.13;;;19.44;39.94
70445;BME280;57902;49.638;11.070;2022-07-10T10:06:49;98938.84;;;19.43;39.52
70445;BME280;57902;49.638;11.070;2022-07-10T10:11:57;98932.19;;;19.21;40.86
70445;BME280;57902;49.638;11.070;2022-07-10T10:14:27;98939.50;;;19.30;40.61
70445;BME280;57902;49.638;11.070;2022-07-10T10:16:55;98941.19;;;19.15;40.70
70445;BME280;57902;49.638;11.070;2022-07-10T10:19:23;98949.03;;;18.99;41.48
70445;BME280;57902;49.638;11.070;2022-07-10T10:22:09;98946.44;;;18.82;42.21
70445;BME280;57902;49.638;11.070;2022-07-10T10:24:41;98943.03;;;18.64;42.17
70445;BME280;57902;49.638;11.070;2022-07-10T10:27:08;98946.28;;;18.51;42.45
70445;BME280;57902;49.638;11.070;2022-07-10T10:29:38;98947.13;;;18.34;42.85
70445;BME280;57902;49.638;11.070;2022-07-10T10:32:07;98944.28;;;18.22;43.55
70445;BME280;57902;49.638;11.070;2022-07-10T10:34:41;98941.00;;;18.18;43.94
70445;BME280;57902;49.638;11.070;2022-07-10T10:39:54;98940.69;;;18.24;44.67
70445;BME280;57902;49.638;11.070;2022-07-10T10:42:36;98939.38;;;18.33;44.96
70445;BME280;57902;49.638;11.070;2022-07-10T10:45:25;98939.38;;;18.50;43.98
70445;BME280;57902;49.638;11.070;2022-07-10T10:50:48;98935.06;;;18.83;42.98
70445;BME280;57902;49.638;11.070;2022-07-10T10:53:22;98938.28;;;18.88;44.40
70445;BME280;57902;49.638;11.070;2022-07-10T10:58:39;98926.09;;;19.52;41.90
70445;BME280;57902;49.638;11.070;2022-07-10T11:06:41;98930.84;;;20.22;39.08
70445;BME280;57902;49.638;11.070;2022-07-10T11:09:46;98924.59;;;20.54;38.44
70445;BME280;57902;49.638;11.070;2022-07-10T11:12:13;98933.38;;;20.69;38.28
70445;BME280;57902;49.638;11.070;2022-07-10T11:14:44;98929.06;;;20.82;38.06
70445;BME280;57902;49.638;11.070;2022-07-10T11:17:11;98917.31;;;20.88;38.01
70445;BME280;57902;49.638;11.070;2022-07-10T11:19:39;98928.00;;;20.99;37.02
70445;BME280;57902;49.638;11.070;2022-07-10T11:22:28;98933.25;;;20.85;37.42
70445;BME280;57902;49.638;11.070;2022-07-10T11:25:23;98927.75;;;20.75;37.94
70445;BME280;57902;49.638;11.070;2022-07-10T11:28:08;98929.97;;;20.67;37.80
70445;BME280;57902;49.638;11.070;2022-07-10T11:30:52;98938.47;;;20.56;37.82
70445;BME280;57902;49.638;11.070;2022-07-10T11:33:20;98936.28;;;20.48;37.15
70445;BME280;57902;49.638;11.070;2022-07-10T11:35:48;98929.47;;;20.31;37.00
70445;BME280;57902;49.638;11.070;2022-07-10T11:38:25;98937.97;;;20.20;37.43
70445;BME280;57902;49.638;11.070;2022-07-10T11:40:52;98936.22;;;20.05;37.29
70445;BME280;57902;49.638;11.070;2022-07-10T11:43:21;98926.44;;;19.78;39.13
70445;BME280;57902;49.638;11.070;2022-07-10T11:45:51;98927.50;;;19.90;38.56
70445;BME280;57902;49.638;11.070;2022-07-10T11:48:21;98934.81;;;19.99;38.38
70445;BME280;57902;49.638;11.070;2022-07-10T11:50:48;98927.88;;;19.98;38.97
70445;BME280;57902;49.638;11.070;2022-07-10T11:53:24;98924.94;;;20.19;39.05
70445;BME280;57902;49.638;11.070;2022-07-10T11:55:52;98923.22;;;20.34;37.48
70445;BME280;57902;49.638;11.070;2022-07-10T11:58:19;98918.44;;;20.40;37.05
70445;BME280;57902;49.638;11.070;2022-07-10T12:01:00;98917.66;;;20.24;38.33
70445;BME280;57902;49.638;11.070;2022-07-10T12:03:28;98912.63;;;20.21;38.43
70445;BME280;57902;49.638;11.070;2022-07-10T12:06:01;98915.03;;;20.24;38.67
70445;BME280;57902;49.638;11.070;2022-07-10T12:08:27;98905.03;;;20.16;39.25
70445;BME280;57902;49.638;11.070;2022-07-10T12:10:54;98902.34;;;20.32;39.04
70445;BME280;57902;49.638;11.070;2022-07-10T12:13:20;98917.13;;;20.62;37.15
70445;BME280;57902;49.638;11.070;2022-07-10T12:15:48;98913.59;;;20.63;37.59
70445;BME280;57902;49.638;11.070;2022-07-10T12:18:19;98910.97;;;20.77;36.76
70445;BME280;57902;49.638;11.070;2022-07-10T12:20:47;98916.41;;;20.89;35.90
70445;BME280;57902;49.638;11.070;2022-07-10T12:23:16;98926.59;;;20.65;37.32
70445;BME280;57902;49.638;11.070;2022-07-10T12:25:43;98912.72;;;20.48;37.67
70445;BME280;57902;49.638;11.070;2022-07-10T12:28:10;98924.88;;;20.49;37.66
70445;BME280;57902;49.638;11.070;2022-07-10T12:30:43;98921.03;;;20.40;37.35
70445;BME280;57902;49.638;11.070;2022-07-10T12:33:21;98919.09;;;20.44;37.52
70445;BME280;57902;49.638;11.070;2022-07-10T12:35:51;98915.72;;;20.42;37.49
70445;BME280;57902;49.638;11.070;2022-07-10T12:38:24;98916.75;;;20.25;38.49
70445;BME280;57902;49.638;11.070;2022-07-10T12:41:04;98918.31;;;20.27;38.16
70445;BME280;57902;49.638;11.070;2022-07-10T12:43:32;98906.28;;;20.39;37.38
70445;BME280;57902;49.638;11.070;2022-07-10T12:49:07;98908.31;;;20.34;38.84
70445;BME280;57902;49.638;11.070;2022-07-10T12:51:47;98915.44;;;20.46;38.19
70445;BME280;57902;49.638;11.070;2022-07-10T12:54:35;98911.50;;;20.54;38.64
70445;BME280;57902;49.638;11.070;2022-07-10T12:57:03;98918.91;;;20.47;38.75
70445;BME280;57902;49.638;11.070;2022-07-10T12:59:34;98917.50;;;20.41;37.99
70445;BME280;57902;49.638;11.070;2022-07-10T13:02:19;98918.44;;;20.40;38.85
70445;BME280;57902;49.638;11.070;2022-07-10T13:04:57;98920.69;;;20.32;38.27
70445;BME280;57902;49.638;11.070;2022-07-10T13:07:31;98916.47;;;20.30;38.91
70445;BME280;57902;49.638;11.070;2022-07-10T13:10:05;98919.00;;;20.31;39.05
70445;BME280;57902;49.638;11.070;2022-07-10T13:12:34;98924.34;;;20.44;38.61
70445;BME280;57902;49.638;11.070;2022-07-10T13:15:02;98921.81;;;20.57;38.71
70445;BME280;57902;49.638;11.070;2022-07-10T13:17:29;98928.78;;;20.72;39.05
70445;BME280;57902;49.638;11.070;2022-07-10T13:19:55;98927.19;;;20.84;37.23
70445;BME280;57902;49.638;11.070;2022-07-10T13:22:23;98921.94;;;20.84;37.95
70445;BME280;57902;49.638;11.070;2022-07-10T13:24:49;98914.44;;;20.92;37.29
70445;BME280;57902;49.638;11.070;2022-07-10T13:27:16;98922.13;;;20.81;37.07
70445;BME280;57902;49.638;11.070;2022-07-10T13:29:42;98922.03;;;20.68;37.43